Time;durP1;ratioP1;P1;durP2;ratioP2;P2;SDS_P1;SDS_P2;PMS_P1;PMS_P2;Temp;Humidity;BMP_temperature;BMP_pressure;BME280_temperature;BME280_humidity;BME280_pressure;Samples;Min_cycle;Max_cycle;Signal;HPM_P1;HPM_P2
2022/05/24 00:01:25;;;;;;;11.75;5.32;;;13.20;99.90;;;;;;5100684;28;20051;-73
2022/05/24 00:03:51;;;;;;;8.43;5.65;;;13.10;99.90;;;;;;5097384;28;20052;-74
2022/05/24 00:06:17;;;;;;;11.40;5.00;;;13.10;99.90;;;;;;5098486;27;20048;-73
2022/05/24 00:08:43;;;;;;;7.20;4.78;;;13.00;99.90;;;;;;5106634;27;20122;-74
2022/05/24 00:11:08;;;;;;;7.40;4.57;;;13.10;99.90;;;;;;5103625;28;20058;-74
2022/05/24 00:13:34;;;;;;;7.10;4.95;;;13.00;99.90;;;;;;5099202;28;20416;-74
2022/05/24 00:16:00;;;;;;;7.47;4.25;;;13.00;99.90;;;;;;5079936;28;20491;-74
2022/05/24 00:18:28;;;;;;;10.05;5.30;;;13.00;99.90;;;;;;5092930;28;20119;-75
2022/05/24 00:20:57;;;;;;;8.55;4.70;;;13.00;99.90;;;;;;5100763;28;20047;-74
2022/05/24 00:23:24;;;;;;;5.45;4.20;;;12.90;99.90;;;;;;5101987;27;20039;-74
2022/05/24 00:25:52;;;;;;;9.40;4.95;;;12.90;99.90;;;;;;5100136;28;20035;-74
2022/05/24 00:28:19;;;;;;;9.55;5.43;;;12.90;99.90;;;;;;5099981;28;20051;-75
2022/05/24 00:30:47;;;;;;;8.55;5.50;;;12.80;99.90;;;;;;5102667;28;20028;-74
2022/05/24 00:33:13;;;;;;;11.63;6.10;;;12.80;99.90;;;;;;5099908;28;20036;-73
2022/05/24 00:35:40;;;;;;;13.70;6.30;;;12.70;99.90;;;;;;5104929;28;20055;-73
2022/05/24 00:38:09;;;;;;;13.18;5.65;;;12.70;99.90;;;;;;5105276;27;20078;-73
2022/05/24 00:40:48;;;;;;;7.93;5.22;;;12.70;99.90;;;;;;5098057;28;20590;-73
2022/05/24 00:43:30;;;;;;;9.15;6.40;;;12.70;99.90;;;;;;5101123;28;20562;-73
2022/05/24 00:46:04;;;;;;;9.80;5.45;;;12.70;99.90;;;;;;5096474;28;20040;-74
2022/05/24 00:48:43;;;;;;;11.13;6.90;;;12.70;99.90;;;;;;5104715;27;20293;-74
2022/05/24 00:51:10;;;;;;;11.15;6.75;;;12.70;99.90;;;;;;5101678;28;20055;-74
2022/05/24 00:53:42;;;;;;;8.30;6.35;;;12.80;99.90;;;;;;5106095;28;20043;-74
2022/05/24 00:56:17;;;;;;;12.75;7.43;;;12.80;99.90;;;;;;5106240;28;20584;-74
2022/05/24 00:58:58;;;;;;;10.30;7.72;;;12.80;99.90;;;;;;5091500;28;20040;-74
2022/05/24 01:01:42;;;;;;;11.45;8.05;;;12.80;99.90;;;;;;5092200;28;20042;-74
2022/05/24 01:04:12;;;;;;;11.95;8.65;;;12.90;99.90;;;;;;5095317;28;20081;-74
2022/05/24 01:06:38;;;;;;;15.10;8.82;;;12.90;99.90;;;;;;5103799;28;20071;-74
2022/05/24 01:09:09;;;;;;;12.93;9.10;;;12.90;99.90;;;;;;5103423;28;20078;-74
2022/05/24 01:11:38;;;;;;;11.75;8.65;;;13.00;99.90;;;;;;5108860;28;20036;-74
2022/05/24 01:14:07;;;;;;;14.05;9.30;;;13.00;99.90;;;;;;5107656;28;20050;-75
2022/05/24 01:16:33;;;;;;;14.88;9.20;;;13.00;99.90;;;;;;5079381;28;20890;-74
2022/05/24 01:18:59;;;;;;;16.80;9.95;;;13.10;99.90;;;;;;5087333;28;20090;-75
2022/05/24 01:21:25;;;;;;;13.52;9.30;;;13.10;99.90;;;;;;5104359;28;20105;-75
2022/05/24 01:24:08;;;;;;;13.60;8.88;;;13.10;99.90;;;;;;5087476;27;20176;-75
2022/05/24 01:26:50;;;;;;;12.88;8.43;;;13.10;99.90;;;;;;5108835;28;20596;-75
2022/05/24 01:29:18;;;;;;;13.35;9.07;;;13.20;99.90;;;;;;5109055;28;20147;-75
2022/05/24 01:37:14;;;;;;;15.35;9.40;;;13.20;99.90;;;;;;5108922;28;20477;-75
2022/05/24 01:39:44;;;;;;;12.52;10.25;;;13.20;99.90;;;;;;5089974;28;20051;-75
2022/05/24 01:42:10;;;;;;;17.83;11.25;;;13.20;99.90;;;;;;5106009;28;20093;-75
2022/05/24 01:44:44;;;;;;;16.42;11.40;;;13.20;99.90;;;;;;5087803;28;20044;-75
2022/05/24 01:47:14;;;;;;;18.30;12.75;;;13.20;99.90;;;;;;5110354;28;20047;-75
2022/05/24 01:49:45;;;;;;;20.13;12.20;;;13.20;99.90;;;;;;5110822;28;20337;-75
2022/05/24 01:52:16;;;;;;;18.15;13.27;;;13.20;99.90;;;;;;5108177;28;20130;-75
2022/05/24 01:54:47;;;;;;;24.63;15.55;;;13.30;99.90;;;;;;5080514;28;20048;-75
2022/05/24 01:57:17;;;;;;;25.67;16.63;;;13.30;99.90;;;;;;5109381;28;20084;-76
2022/05/24 01:59:45;;;;;;;26.23;17.70;;;13.30;99.90;;;;;;5086932;28;20050;-76
2022/05/24 02:02:11;;;;;;;28.90;19.52;;;13.30;99.90;;;;;;5105922;28;20106;-72
2022/05/24 02:04:38;;;;;;;32.58;20.92;;;13.30;99.90;;;;;;5101881;28;20063;-74
2022/05/24 02:07:12;;;;;;;34.03;23.17;;;13.30;99.90;;;;;;5098955;28;20035;-75
2022/05/24 02:09:43;;;;;;;41.35;24.80;;;13.30;99.90;;;;;;5104757;28;20196;-75
2022/05/24 02:12:18;;;;;;;38.30;25.85;;;13.30;99.90;;;;;;5084482;28;20066;-75
2022/05/24 02:14:50;;;;;;;39.38;24.98;;;13.40;99.90;;;;;;5103617;28;20477;-74
2022/05/24 02:17:20;;;;;;;40.13;26.02;;;13.40;99.90;;;;;;5102744;28;20407;-75
2022/05/24 02:19:51;;;;;;;37.08;25.67;;;13.40;99.90;;;;;;5100247;28;20093;-75
2022/05/24 02:22:24;;;;;;;38.67;24.52;;;13.40;99.90;;;;;;5089154;28;20051;-74
2022/05/24 02:24:57;;;;;;;;;;;13.40;99.90;;;;;;5086516;28;20050;-74
2022/05/24 02:27:24;;;;;;;36.10;24.13;;;13.50;99.90;;;;;;5106040;28;19954;-74
2022/05/24 02:29:49;;;;;;;37.67;25.20;;;13.50;99.90;;;;;;5101896;28;20035;-74
2022/05/24 02:32:15;;;;;;;45.63;26.52;;;13.50;99.90;;;;;;5086662;28;20031;-74
2022/05/24 02:34:40;;;;;;;37.80;25.58;;;13.50;99.90;;;;;;5080844;28;20038;-74
2022/05/24 02:37:06;;;;;;;39.50;25.52;;;13.50;99.90;;;;;;5105953;28;20077;-75
2022/05/24 02:41:28;;;;;;;37.45;25.85;;;13.50;99.90;;;;;;5081557;28;20039;-75
2022/05/24 02:42:17;;;;;;;40.35;27.60;;;13.50;99.90;;;;;;5075367;28;20040;-75
2022/05/24 02:44:43;;;;;;;41.60;26.08;;;13.50;99.90;;;;;;5103879;28;20387;-74
2022/05/24 02:47:08;;;;;;;39.78;26.55;;;13.50;99.90;;;;;;5088721;28;20368;-74
2022/05/24 02:49:34;;;;;;;37.10;26.63;;;13.60;99.90;;;;;;5087425;28;20501;-74
2022/05/24 02:52:00;;;;;;;32.47;25.25;;;13.60;99.90;;;;;;5090653;28;20533;-74
2022/05/24 02:54:25;;;;;;;35.85;26.08;;;13.50;99.90;;;;;;5082809;28;20043;-74
2022/05/24 02:56:51;;;;;;;36.88;25.00;;;13.50;99.90;;;;;;5088601;28;20055;-74
2022/05/24 02:59:16;;;;;;;29.63;24.80;;;13.50;99.90;;;;;;5081498;27;20272;-74
2022/05/24 03:01:42;;;;;;;30.33;24.08;;;13.50;99.90;;;;;;5088421;28;20165;-73
2022/05/24 03:04:08;;;;;;;29.10;21.23;;;13.50;99.90;;;;;;5083647;28;20529;-73
2022/05/24 03:09:33;;;;;;;34.80;21.92;;;13.50;99.90;;;;;;5080680;28;20533;-74
2022/05/24 03:09:35;;;;;;;26.17;20.23;;;13.40;99.90;;;;;;5101849;28;20394;-74
2022/05/24 03:14:54;;;;;;;20.67;15.95;;;13.40;99.90;;;;;;5086113;28;20067;-74
2022/05/24 03:17:20;;;;;;;23.27;15.35;;;13.40;99.90;;;;;;5083280;28;20089;-74
2022/05/24 03:19:46;;;;;;;21.35;16.58;;;13.40;99.90;;;;;;5106502;28;20559;-74
2022/05/24 03:22:13;;;;;;;21.85;15.55;;;13.40;99.90;;;;;;5088645;28;20047;-75
2022/05/24 03:24:39;;;;;;;18.08;13.93;;;13.40;99.90;;;;;;5103699;28;20044;-75
2022/05/24 03:27:11;;;;;;;19.75;14.07;;;13.30;99.90;;;;;;5080049;28;20049;-75
2022/05/24 03:29:45;;;;;;;20.05;12.13;;;13.40;99.90;;;;;;5103159;28;20039;-75
2022/05/24 03:32:13;;;;;;;17.55;12.30;;;13.40;99.90;;;;;;5107469;28;20047;-74
2022/05/24 03:34:42;;;;;;;17.95;12.40;;;13.30;99.90;;;;;;5075647;28;20413;-75
2022/05/24 03:37:08;;;;;;;23.52;11.35;;;13.40;99.90;;;;;;5088974;28;20123;-73
2022/05/24 03:39:34;;;;;;;19.77;11.40;;;13.30;99.90;;;;;;5080542;28;20075;-74
2022/05/24 03:42:00;;;;;;;17.08;10.07;;;13.30;99.90;;;;;;5102317;28;20031;-74
2022/05/24 03:44:26;;;;;;;13.95;9.77;;;13.30;99.90;;;;;;5090146;28;20039;-74
2022/05/24 03:46:53;;;;;;;14.77;10.23;;;13.30;99.90;;;;;;5108879;28;20559;-75
2022/05/24 03:49:19;;;;;;;17.52;10.95;;;13.30;99.90;;;;;;5105824;28;20043;-75
2022/05/24 03:51:45;;;;;;;16.02;9.60;;;13.30;99.90;;;;;;5087984;28;20081;-75
2022/05/24 03:54:11;;;;;;;13.82;8.70;;;13.20;99.90;;;;;;5079451;28;20047;-75
2022/05/24 03:56:37;;;;;;;15.80;8.40;;;13.20;99.90;;;;;;5081588;28;20050;-75
2022/05/24 03:59:04;;;;;;;13.10;8.15;;;13.20;99.90;;;;;;5085894;28;20040;-76
2022/05/24 04:01:29;;;;;;;13.27;7.93;;;13.10;99.90;;;;;;5103772;28;20039;-74
2022/05/24 04:03:55;;;;;;;12.15;7.53;;;13.10;99.90;;;;;;5079617;28;20115;-74
2022/05/24 04:06:21;;;;;;;13.65;7.75;;;13.10;99.90;;;;;;5104110;28;20131;-74
2022/05/24 04:08:46;;;;;;;12.70;7.32;;;13.10;99.90;;;;;;5085562;28;20039;-74
2022/05/24 04:11:13;;;;;;;10.88;7.25;;;13.00;99.90;;;;;;5102613;27;20051;-75
2022/05/24 04:13:41;;;;;;;13.43;7.53;;;13.00;99.90;;;;;;5087619;28;20052;-74
2022/05/24 04:16:08;;;;;;;14.82;7.88;;;13.00;99.90;;;;;;5096999;28;20042;-75
2022/05/24 04:18:34;;;;;;;13.52;7.35;;;12.90;99.90;;;;;;5084445;28;20067;-76
2022/05/24 04:21:00;;;;;;;12.85;7.80;;;12.90;99.90;;;;;;5087536;28;20043;-75
2022/05/24 04:23:27;;;;;;;11.05;7.35;;;12.90;99.90;;;;;;5108809;28;20068;-75
2022/05/24 04:25:55;;;;;;;20.05;8.38;;;12.90;99.90;;;;;;5084840;28;20495;-75
2022/05/24 04:28:22;;;;;;;16.70;7.78;;;12.90;99.90;;;;;;5081646;28;20047;-75
2022/05/24 04:30:52;;;;;;;15.23;9.07;;;12.90;99.90;;;;;;5094623;28;20387;-75
2022/05/24 04:33:19;;;;;;;16.55;8.45;;;12.90;99.90;;;;;;5088066;28;20052;-75
2022/05/24 04:35:44;;;;;;;12.80;7.75;;;12.90;99.90;;;;;;5093903;28;20036;-75
2022/05/24 04:38:10;;;;;;;12.07;7.82;;;13.00;99.90;;;;;;5102824;28;20047;-73
2022/05/24 04:43:22;;;;;;;15.93;9.65;;;13.10;99.90;;;;;;5103933;28;20047;-75
2022/05/24 04:45:48;;;;;;;17.55;10.80;;;13.00;99.90;;;;;;5087823;28;20492;-74
2022/05/24 04:48:13;;;;;;;16.23;10.60;;;13.10;99.90;;;;;;5103302;28;20387;-74
2022/05/24 04:50:39;;;;;;;17.52;10.60;;;13.10;99.90;;;;;;5105359;28;20054;-75
2022/05/24 04:53:06;;;;;;;16.65;10.80;;;13.10;99.90;;;;;;5093638;28;20036;-75
2022/05/24 04:55:32;;;;;;;15.23;10.63;;;13.20;99.90;;;;;;5082206;28;20155;-76
2022/05/24 04:57:58;;;;;;;18.65;11.18;;;13.20;99.90;;;;;;5110197;28;20075;-76
2022/05/24 05:00:25;;;;;;;17.73;11.35;;;13.20;99.90;;;;;;5089925;28;20086;-75
2022/05/24 05:02:51;;;;;;;18.98;11.43;;;13.20;99.90;;;;;;5087674;28;20039;-75
2022/05/24 05:05:18;;;;;;;15.20;11.27;;;13.20;99.90;;;;;;5101669;28;20051;-75
2022/05/24 05:07:43;;;;;;;19.63;12.07;;;13.20;99.90;;;;;;5085603;28;20055;-74
2022/05/24 05:10:13;;;;;;;23.17;12.48;;;13.20;99.90;;;;;;5083921;28;20036;-75
2022/05/24 05:12:40;;;;;;;22.80;13.40;;;13.30;99.90;;;;;;5085259;28;20060;-75
2022/05/24 05:15:08;;;;;;;19.15;12.43;;;13.30;99.90;;;;;;5079946;28;20046;-74
2022/05/24 05:17:35;;;;;;;17.95;12.80;;;13.30;99.90;;;;;;5103801;28;20035;-74
2022/05/24 05:20:01;;;;;;;21.90;14.55;;;13.40;99.90;;;;;;5103526;28;20036;-76
2022/05/24 05:22:27;;;;;;;20.00;13.57;;;13.40;99.90;;;;;;5104790;28;20130;-76
2022/05/24 05:24:52;;;;;;;20.52;14.45;;;13.40;99.90;;;;;;5103218;28;20042;-75
2022/05/24 05:27:19;;;;;;;23.65;14.57;;;13.40;99.90;;;;;;5101870;28;20759;-75
2022/05/24 05:32:32;;;;;;;25.70;15.68;;;13.40;99.90;;;;;;5103461;28;20036;-73
2022/05/24 05:34:59;;;;;;;24.67;15.10;;;13.60;99.90;;;;;;5103207;28;20413;-74
2022/05/24 05:37:29;;;;;;;28.63;16.33;;;13.60;99.90;;;;;;5099798;28;20855;-74
2022/05/24 05:39:56;;;;;;;27.63;16.75;;;13.60;99.90;;;;;;5101458;28;20036;-77
2022/05/24 05:42:22;;;;;;;25.98;14.70;;;13.70;99.90;;;;;;5084229;28;20067;-77
2022/05/24 05:44:49;;;;;;;29.83;16.35;;;13.70;99.90;;;;;;5102476;28;20063;-75
2022/05/24 05:47:17;;;;;;;24.25;15.20;;;13.70;99.90;;;;;;5103264;28;20494;-75
2022/05/24 05:49:42;;;;;;;23.90;16.13;;;13.70;99.90;;;;;;5104776;28;20063;-75
2022/05/24 05:52:08;;;;;;;29.15;16.52;;;13.80;99.90;;;;;;5084317;28;20536;-82
2022/05/24 05:54:34;;;;;;;27.58;15.82;;;13.80;99.90;;;;;;5107122;28;20039;-75
2022/05/24 05:57:00;;;;;;;26.10;15.63;;;13.70;99.90;;;;;;5085356;28;20032;-82
2022/05/24 05:59:26;;;;;;;26.25;14.32;;;13.80;99.90;;;;;;5109627;28;20177;-80
2022/05/24 06:01:56;;;;;;;20.63;12.25;;;13.80;99.90;;;;;;5099568;28;20127;-80
2022/05/24 06:04:22;;;;;;;13.15;6.38;;;13.80;99.90;;;;;;5104390;28;20043;-83
2022/05/24 06:06:47;;;;;;;8.07;4.50;;;13.70;99.90;;;;;;5108718;28;20047;-85
2022/05/24 06:09:13;;;;;;;6.32;3.65;;;13.70;99.90;;;;;;5089247;28;20044;-82
2022/05/24 06:11:41;;;;;;;3.92;2.28;;;13.70;99.90;;;;;;5085495;28;20499;-83
2022/05/24 06:14:08;;;;;;;4.80;2.63;;;13.60;99.90;;;;;;5095238;28;20495;-82
2022/05/24 06:16:34;;;;;;;5.82;2.92;;;13.60;99.90;;;;;;5090823;28;20112;-78
2022/05/24 06:19:00;;;;;;;4.88;2.78;;;13.60;99.90;;;;;;5107963;28;20046;-78
2022/05/24 06:21:25;;;;;;;6.40;2.67;;;13.60;99.90;;;;;;5101114;28;20075;-77
2022/05/24 06:23:51;;;;;;;5.15;2.85;;;13.60;99.90;;;;;;5087278;28;20039;-77
2022/05/24 06:26:19;;;;;;;7.43;3.17;;;13.70;99.90;;;;;;5102746;28;20043;-76
2022/05/24 06:28:45;;;;;;;6.22;3.53;;;13.70;99.90;;;;;;5105227;28;20074;-75
2022/05/24 06:31:14;;;;;;;9.88;4.07;;;13.70;99.90;;;;;;5107802;28;20110;-74
2022/05/24 06:33:39;;;;;;;8.52;4.05;;;13.80;99.90;;;;;;5101475;28;20391;-74
2022/05/24 06:36:05;;;;;;;12.55;4.47;;;13.80;99.90;;;;;;5102479;28;20495;-74
2022/05/24 06:38:32;;;;;;;8.15;4.10;;;13.90;99.90;;;;;;5085451;28;20205;-74
2022/05/24 06:40:57;;;;;;;9.80;4.57;;;13.90;99.90;;;;;;5087702;28;20126;-74
2022/05/24 06:43:23;;;;;;;8.60;5.10;;;13.90;99.90;;;;;;5086874;28;20114;-74
2022/05/24 06:45:48;;;;;;;15.13;5.07;;;13.90;99.90;;;;;;5098789;28;20300;-74
2022/05/24 06:48:14;;;;;;;11.40;4.95;;;13.90;99.90;;;;;;5082785;28;20038;-74
2022/05/24 06:50:41;;;;;;;11.60;4.97;;;14.00;99.90;;;;;;5105531;28;20508;-74
2022/05/24 06:53:08;;;;;;;12.25;5.63;;;14.00;99.90;;;;;;5107366;28;20067;-73
2022/05/24 06:55:33;;;;;;;13.57;6.72;;;14.10;99.90;;;;;;5102453;28;20063;-73
2022/05/24 06:57:59;;;;;;;15.35;6.38;;;14.10;99.90;;;;;;5107192;28;20506;-73
2022/05/24 07:03:15;;;;;;;11.73;5.82;;;14.20;99.90;;;;;;5094895;28;20465;-73
2022/05/24 07:05:42;;;;;;;11.75;6.10;;;14.10;99.90;;;;;;5084249;28;20059;-73
2022/05/24 07:08:09;;;;;;;8.52;6.28;;;14.10;99.90;;;;;;5099936;28;20319;-74
2022/05/24 07:10:36;;;;;;;14.27;6.72;;;14.10;99.90;;;;;;5082957;28;20064;-68
2022/05/24 07:13:08;;;;;;;13.10;6.60;;;14.10;99.90;;;;;;5107951;28;20475;-71
2022/05/24 07:15:35;;;;;;;11.35;6.22;;;14.10;99.90;;;;;;5087337;28;20152;-73
2022/05/24 07:18:01;;;;;;;16.10;6.43;;;14.10;99.90;;;;;;5080638;28;20051;-75
2022/05/24 07:20:28;;;;;;;15.13;6.72;;;14.20;99.90;;;;;;5082314;28;20052;-70
2022/05/24 07:23:04;;;;;;;11.40;6.03;;;14.20;99.90;;;;;;5080741;28;20085;-69
2022/05/24 07:25:30;;;;;;;11.60;5.43;;;14.30;99.90;;;;;;5073425;28;20086;-74
2022/05/24 07:27:56;;;;;;;12.23;7.10;;;14.30;99.90;;;;;;5098244;27;20395;-75
2022/05/24 07:30:22;;;;;;;13.32;5.88;;;14.30;99.90;;;;;;5083646;28;20584;-75
2022/05/24 07:32:47;;;;;;;11.70;6.03;;;14.40;99.90;;;;;;5078117;28;20036;-75
2022/05/24 07:35:13;;;;;;;12.80;5.93;;;14.50;99.90;;;;;;5100497;28;20460;-75
2022/05/24 07:37:39;;;;;;;11.95;5.40;;;14.50;99.90;;;;;;5097317;28;20032;-74
2022/05/24 07:45:49;;;;;;;14.77;5.65;;;14.80;99.90;;;;;;5078976;28;20050;-75
2022/05/24 07:48:15;;;;;;;9.38;4.93;;;14.80;99.90;;;;;;5102048;28;20904;-74
2022/05/24 07:50:41;;;;;;;10.23;4.55;;;14.90;99.90;;;;;;5079191;28;20043;-75
2022/05/24 07:53:08;;;;;;;8.00;4.00;;;14.90;99.90;;;;;;5097154;28;20541;-74
2022/05/24 07:55:34;;;;;;;11.25;4.55;;;14.80;99.90;;;;;;5095131;28;20050;-81
2022/05/24 07:58:00;;;;;;;7.18;3.38;;;14.80;99.90;;;;;;5093572;28;20528;-75
2022/05/24 08:00:26;;;;;;;6.35;3.63;;;14.70;99.90;;;;;;5073938;28;20047;-75
2022/05/24 08:02:53;;;;;;;5.53;3.47;;;14.70;99.90;;;;;;5094797;28;20071;-76
2022/05/24 08:05:19;;;;;;;9.07;4.07;;;14.70;99.90;;;;;;5095857;28;20126;-75
2022/05/24 08:07:45;;;;;;;7.47;4.20;;;14.60;99.90;;;;;;5083034;28;20418;-76
2022/05/24 08:10:12;;;;;;;7.35;3.70;;;14.60;99.90;;;;;;5096952;28;20044;-75
2022/05/24 08:12:38;;;;;;;10.60;3.83;;;14.60;99.90;;;;;;5100530;28;20527;-75
2022/05/24 08:15:05;;;;;;;5.78;2.95;;;14.60;99.90;;;;;;5086850;28;20036;-75
2022/05/24 08:17:30;;;;;;;8.25;3.95;;;14.60;99.90;;;;;;5106546;28;20035;-74
2022/05/24 08:19:56;;;;;;;7.93;3.60;;;14.60;99.90;;;;;;5089942;28;20047;-75
2022/05/24 08:22:22;;;;;;;6.90;3.60;;;14.60;99.90;;;;;;5101647;28;20506;-74
2022/05/24 08:24:49;;;;;;;11.90;4.45;;;14.50;99.90;;;;;;5101434;28;20051;-75
2022/05/24 08:27:16;;;;;;;5.38;3.70;;;14.40;99.90;;;;;;5098773;28;20050;-75
2022/05/24 08:29:42;;;;;;;11.13;4.72;;;14.30;99.90;;;;;;5106878;28;20050;-75
2022/05/24 08:32:08;;;;;;;10.52;5.75;;;14.20;99.90;;;;;;5098179;28;20044;-77
2022/05/24 08:34:34;;;;;;;13.65;5.47;;;14.00;99.90;;;;;;5083437;28;20100;-78
2022/05/24 08:37:00;;;;;;;11.85;6.22;;;13.90;99.90;;;;;;5081665;28;20055;-78
2022/05/24 08:39:27;;;;;;;17.05;5.75;;;13.80;99.90;;;;;;5106673;28;20073;-78
2022/05/24 08:42:05;;;;;;;10.73;5.50;;;13.60;99.90;;;;;;5109054;28;20116;-77
2022/05/24 08:50:18;;;;;;;14.40;6.15;;;13.50;99.90;;;;;;5098415;28;20036;-77
2022/05/24 08:52:50;;;;;;;8.98;6.32;;;13.50;99.90;;;;;;5080539;28;20048;-75
2022/05/24 08:55:17;;;;;;;12.23;6.53;;;13.60;99.90;;;;;;5099209;28;20031;-77
2022/05/24 08:57:56;;;;;;;16.35;7.97;;;13.60;99.90;;;;;;5098652;28;20038;-76
2022/05/24 09:00:42;;;;;;;13.02;8.40;;;13.60;99.90;;;;;;5104514;28;20089;-76
2022/05/24 09:03:09;;;;;;;15.25;8.00;;;13.60;99.90;;;;;;5102118;28;20046;-76
2022/05/24 09:05:45;;;;;;;16.40;7.60;;;13.60;99.90;;;;;;5083996;28;20040;-76
2022/05/24 09:08:29;;;;;;;9.85;6.90;;;13.60;99.90;;;;;;5104168;28;20036;-76
2022/05/24 09:11:47;;;;;;;10.98;6.95;;;13.60;99.90;;;;;;5103765;28;20116;-78
2022/05/24 09:14:27;;;;;;;12.18;8.02;;;13.60;99.90;;;;;;5068853;28;20036;-77
2022/05/24 09:17:13;;;;;;;17.70;8.68;;;13.80;99.90;;;;;;5109453;28;20040;-75
2022/05/24 09:19:42;;;;;;;14.38;7.85;;;14.00;99.90;;;;;;5104132;28;20549;-75
2022/05/24 09:22:10;;;;;;;14.68;7.85;;;14.00;99.90;;;;;;5072101;28;20056;-77
2022/05/24 09:24:44;;;;;;;10.45;6.35;;;14.20;99.90;;;;;;5105060;28;20050;-73
2022/05/24 09:27:16;;;;;;;6.70;3.80;;;14.50;99.90;;;;;;5086691;28;20044;-73
2022/05/24 09:30:13;;;;;;;7.90;4.97;;;14.70;99.90;;;;;;5107816;28;20089;-74
2022/05/24 09:32:44;;;;;;;7.55;4.38;;;15.10;99.90;;;;;;5108745;28;20043;-74
2022/05/24 09:35:16;;;;;;;8.10;4.10;;;15.50;99.90;;;;;;5110545;28;20285;-75
2022/05/24 09:37:44;;;;;;;5.90;4.07;;;15.60;99.90;;;;;;5109678;28;20138;-74
2022/05/24 09:40:22;;;;;;;11.00;4.80;;;15.70;99.90;;;;;;5087145;28;20051;-75
2022/05/24 09:42:48;;;;;;;7.88;4.53;;;15.70;99.90;;;;;;5090794;28;20048;-77
2022/05/24 09:45:18;;;;;;;7.95;3.95;;;15.70;99.90;;;;;;5081611;28;20205;-75
2022/05/24 09:47:43;;;;;;;7.07;4.28;;;15.50;99.90;;;;;;5108385;28;20469;-76
2022/05/24 09:50:26;;;;;;;6.13;3.63;;;15.30;99.90;;;;;;5090857;28;20044;-76
2022/05/24 09:53:06;;;;;;;5.43;3.38;;;15.10;99.90;;;;;;5101412;28;20081;-75
2022/05/24 09:55:38;;;;;;;3.72;2.10;;;14.80;99.90;;;;;;5088768;28;20047;-76
2022/05/24 09:58:19;;;;;;;4.97;2.10;;;14.50;99.90;;;;;;5107234;28;20093;-75
2022/05/24 10:01:12;;;;;;;5.43;1.70;;;14.40;99.90;;;;;;5089337;28;20459;-75
2022/05/24 10:03:49;;;;;;;4.63;2.33;;;14.40;99.90;;;;;;5085354;28;20388;-74
2022/05/24 10:06:22;;;;;;;3.92;3.08;;;14.40;99.90;;;;;;5079520;28;20335;-75
2022/05/24 10:08:51;;;;;;;7.63;2.72;;;14.60;99.90;;;;;;5106066;28;20055;-74
2022/05/24 10:11:38;;;;;;;7.43;2.95;;;14.80;99.90;;;;;;5105479;27;20031;-74
2022/05/24 10:14:19;;;;;;;5.25;2.95;;;14.70;99.90;;;;;;5099966;28;20078;-75
2022/05/24 10:16:53;;;;;;;10.02;3.28;;;14.70;99.90;;;;;;5101213;28;20039;-75
2022/05/24 10:19:57;;;;;;;6.03;3.15;;;14.70;99.90;;;;;;5103667;27;20043;-75
2022/05/24 10:22:31;;;;;;;6.45;3.42;;;14.90;99.90;;;;;;5046671;28;20032;-75
2022/05/24 10:25:05;;;;;;;6.15;3.10;;;15.20;99.90;;;;;;5073699;28;20044;-75
2022/05/24 10:27:44;;;;;;;8.77;4.32;;;15.40;99.90;;;;;;5085551;28;20529;-75
2022/05/24 10:30:19;;;;;;;7.10;3.55;;;15.10;99.90;;;;;;5088598;28;20036;-75
2022/05/24 10:39:32;;;;;;;3.40;0.90;;;14.30;99.90;;;;;;5082808;28;20052;-76
2022/05/24 10:42:03;;;;;;;2.28;0.70;;;14.20;99.90;;;;;;5078787;28;20502;-75
2022/05/24 10:45:10;;;;;;;4.47;1.15;;;14.20;99.90;;;;;;5084436;28;20186;-75
2022/05/24 10:48:04;;;;;;;6.03;1.92;;;14.40;99.90;;;;;;5075421;28;20056;-74
2022/05/24 10:50:48;;;;;;;5.78;1.65;;;14.70;99.90;;;;;;5089383;28;20036;-76
2022/05/24 10:53:34;;;;;;;5.20;1.40;;;14.60;99.90;;;;;;5062030;28;20469;-77
2022/05/24 10:56:13;;;;;;;3.55;1.27;;;14.80;99.90;;;;;;5066953;28;20116;-74
2022/05/24 10:58:41;;;;;;;3.47;1.20;;;15.10;99.90;;;;;;5066151;28;20283;-82
2022/05/24 11:01:34;;;;;;;3.30;1.42;;;15.10;99.90;;;;;;5065656;28;20049;-86
2022/05/24 11:04:07;;;;;;;4.95;1.63;;;15.20;99.90;;;;;;5054531;28;20063;-80
2022/05/24 11:06:44;;;;;;;5.22;1.38;;;15.20;99.90;;;;;;5071686;28;20065;-79
2022/05/24 11:09:17;;;;;;;6.18;2.03;;;15.20;99.90;;;;;;5064109;28;20098;-78
2022/05/24 11:12:05;;;;;;;6.72;1.70;;;15.10;99.90;;;;;;5083118;28;20899;-78
2022/05/24 11:14:56;;;;;;;4.10;1.40;;;15.00;99.90;;;;;;5061378;28;20122;-80
2022/05/24 11:17:22;;;;;;;5.47;1.42;;;14.80;99.90;;;;;;5085279;28;20063;-77
2022/05/24 11:19:51;;;;;;;5.88;1.50;;;14.60;99.90;;;;;;5067676;28;20399;-77
2022/05/24 11:22:35;;;;;;;6.22;1.70;;;14.50;99.90;;;;;;5094730;28;20047;-77
2022/05/24 11:25:20;;;;;;;5.20;1.65;;;14.60;99.90;;;;;;5104689;28;20039;-76
2022/05/24 11:28:14;;;;;;;3.95;1.30;;;14.80;99.90;;;;;;5090099;28;20051;-77
2022/05/24 11:30:45;;;;;;;5.03;1.50;;;14.90;99.90;;;;;;5085265;28;20048;-78
2022/05/24 11:33:15;;;;;;;5.38;1.40;;;15.40;99.90;;;;;;5100995;27;20044;-78
2022/05/24 11:35:50;;;;;;;4.60;1.63;;;15.70;99.90;;;;;;5103821;28;20032;-78
2022/05/24 11:38:36;;;;;;;9.38;1.60;;;15.70;99.90;;;;;;5085598;28;20092;-79
2022/05/24 11:41:31;;;;;;;5.15;1.52;;;15.60;99.90;;;;;;5105717;28;20132;-77
2022/05/24 11:44:01;;;;;;;5.95;1.73;;;15.50;99.90;;;;;;5106072;28;20134;-79
2022/05/24 11:46:33;;;;;;;6.55;1.77;;;15.30;99.90;;;;;;5097856;27;20040;-78
2022/05/24 11:49:04;;;;;;;6.47;2.40;;;15.20;99.90;;;;;;5101592;28;20088;-73
2022/05/24 11:51:44;;;;;;;5.80;1.60;;;15.00;99.90;;;;;;5087413;28;20051;-78
2022/05/24 11:54:16;;;;;;;7.80;1.80;;;14.90;99.90;;;;;;5100236;28;20039;-78
2022/05/24 11:56:51;;;;;;;6.00;1.92;;;15.10;99.90;;;;;;5101100;28;20437;-78
2022/05/24 11:59:40;;;;;;;4.80;1.40;;;15.20;99.90;;;;;;5099428;28;20090;-78
2022/05/24 12:02:27;;;;;;;4.20;1.35;;;15.40;99.90;;;;;;5093920;28;20035;-76
2022/05/24 12:08:32;;;;;;;4.07;1.23;;;15.50;99.90;;;;;;5086371;28;20035;-77
2022/05/24 12:11:14;;;;;;;2.65;1.00;;;15.90;99.90;;;;;;5100588;28;20043;-76
2022/05/24 12:13:46;;;;;;;4.10;1.17;;;15.90;99.90;;;;;;5083366;28;20039;-75
2022/05/24 12:16:32;;;;;;;4.50;1.08;;;16.00;99.90;;;;;;5101027;28;20054;-76
2022/05/24 12:19:02;;;;;;;5.53;1.10;;;16.20;99.90;;;;;;5102957;28;20138;-75
2022/05/24 12:21:52;;;;;;;2.80;0.93;;;16.40;99.90;;;;;;5104866;28;20499;-77
2022/05/24 12:24:33;;;;;;;5.10;1.00;;;16.50;99.90;;;;;;5085185;28;20058;-76
2022/05/24 12:27:20;;;;;;;2.55;0.95;;;16.50;99.90;;;;;;5083619;28;20537;-75
2022/05/24 12:29:57;;;;;;;3.42;1.08;;;16.60;99.90;;;;;;5085292;28;20487;-77
2022/05/24 12:32:25;;;;;;;3.70;1.10;;;16.70;99.90;;;;;;5105201;28;20040;-76
2022/05/24 12:34:51;;;;;;;5.25;1.30;;;16.70;99.90;;;;;;5105050;28;20078;-76
2022/05/24 12:37:25;;;;;;;7.13;1.45;;;16.80;99.90;;;;;;5086752;28;20509;-77
2022/05/24 12:40:17;;;;;;;9.02;1.70;;;16.80;99.90;;;;;;5087544;28;20044;-76
2022/05/24 12:42:55;;;;;;;6.97;1.65;;;16.90;99.90;;;;;;5077499;28;20043;-77
2022/05/24 12:45:40;;;;;;;4.88;2.03;;;17.10;99.90;;;;;;5104615;28;20063;-76
2022/05/24 12:48:37;;;;;;;9.63;2.42;;;17.20;99.90;;;;;;5100692;28;20483;-77
2022/05/24 12:51:08;;;;;;;5.03;1.90;;;17.10;99.90;;;;;;5080503;28;20040;-76
2022/05/24 12:53:34;;;;;;;6.72;2.05;;;17.00;99.90;;;;;;5104763;28;20043;-75
2022/05/24 12:56:15;;;;;;;5.63;1.40;;;16.70;99.90;;;;;;5087288;28;20092;-77
2022/05/24 12:58:44;;;;;;;14.05;2.70;;;16.50;99.90;;;;;;5083124;28;20044;-77
2022/05/24 13:01:18;;;;;;;4.38;1.70;;;16.30;99.90;;;;;;5109978;28;20039;-76
2022/05/24 13:03:53;;;;;;;5.38;1.77;;;16.20;99.90;;;;;;5107128;28;20044;-75
2022/05/24 13:06:26;;;;;;;7.47;2.17;;;16.10;99.90;;;;;;5104023;28;20286;-76
2022/05/24 13:09:36;;;;;;;6.28;2.28;;;16.20;99.90;;;;;;5086297;28;20097;-75
2022/05/24 13:12:07;;;;;;;6.93;1.92;;;16.20;99.90;;;;;;5093365;28;20571;-76
2022/05/24 13:14:52;;;;;;;5.47;1.60;;;16.40;99.90;;;;;;5100174;28;20080;-76
2022/05/24 13:17:22;;;;;;;4.03;2.08;;;16.40;99.90;;;;;;5103221;28;20051;-76
2022/05/24 13:20:16;;;;;;;4.63;1.90;;;16.50;99.90;;;;;;5093414;28;20039;-76
2022/05/24 13:22:48;;;;;;;6.57;1.70;;;16.40;99.90;;;;;;5045111;28;20134;-77
2022/05/24 13:25:27;;;;;;;6.22;1.25;;;16.50;99.90;;;;;;5091307;28;20043;-77
2022/05/24 13:27:59;;;;;;;5.45;1.60;;;16.70;99.90;;;;;;5071834;28;20035;-78
2022/05/24 13:33:44;;;;;;;8.57;3.42;;;16.60;99.90;;;;;;5083700;28;20127;-77
2022/05/24 13:36:27;;;;;;;4.70;2.50;;;16.60;99.90;;;;;;5073556;28;20385;-78
2022/05/24 13:39:02;;;;;;;4.72;1.17;;;16.70;99.90;;;;;;5104782;28;20075;-77
2022/05/24 13:41:38;;;;;;;5.72;1.70;;;16.80;99.90;;;;;;5098146;28;20492;-79